La rose des vents
Donnes mto: Semaine 30/07/07 - 05/08/07 (S 31)
Date Horaire Temp. E. Hum. E. P.atmo. Pluie Vent 1mn Direction Ensoleilleme Ev.Tr. Solaire P. de rose Temp au vent Rafales
30/07/2007 00:00 23,6 C 50 % 1006,5 hPa 0,0 l/m 1,3 km/h (1 Bft) N-NO 0,00 h 0,076 mm 0 W/m 12,5 C 23,6 C 2,7 km/h (1 Bft)
30/07/2007 01:00 23,3 C 50 % 1005,9 hPa 0,0 l/m 0,7 km/h (0 Bft) NO 0,00 h 0,051 mm 0 W/m 12,4 C 23,3 C 1,5 km/h (1 Bft)
30/07/2007 02:00 22,8 C 51 % 1005,2 hPa 0,0 l/m 1,9 km/h (1 Bft) O-NO 0,00 h 0,051 mm 0 W/m 12,0 C 22,8 C 3,2 km/h (1 Bft)
30/07/2007 03:00 23,4 C 49 % 1004,6 hPa 0,0 l/m 3,1 km/h (1 Bft) O-NO 0,00 h 0,051 mm 0 W/m 12,0 C 23,4 C 4,7 km/h (1 Bft)
30/07/2007 04:00 21,9 C 66 % 1004,2 hPa 0,0 l/m 2,6 km/h (1 Bft) E 0,00 h 0,076 mm 0 W/m 15,0 C 21,9 C 4,1 km/h (1 Bft)
30/07/2007 05:00 21,0 C 83 % 1004,3 hPa 0,0 l/m 1,3 km/h (1 Bft) E-NE 0,00 h 0,051 mm 0 W/m 17,9 C 21,0 C 3,1 km/h (1 Bft)
30/07/2007 06:00 21,5 C 89 % 1004,3 hPa 0,0 l/m 0,6 km/h (0 Bft) E-NE 0,00 h 0,000 mm 16 W/m 19,5 C 21,5 C 1,4 km/h (1 Bft)
30/07/2007 07:00 22,0 C 89 % 1004,5 hPa 0,0 l/m 0,8 km/h (0 Bft) S-SE 0,25 h 0,000 mm 103 W/m 20,2 C 22,0 C 1,9 km/h (1 Bft)
30/07/2007 08:00 23,7 C 81 % 1004,8 hPa 0,0 l/m 1,8 km/h (1 Bft) SO 0,92 h 0,076 mm 287 W/m 20,3 C 23,7 C 3,7 km/h (1 Bft)
30/07/2007 09:00 25,6 C 73 % 1004,7 hPa 0,0 l/m 5,8 km/h (2 Bft) S 1,00 h 0,178 mm 464 W/m 20,3 C 25,6 C 9,9 km/h (2 Bft)
30/07/2007 10:00 26,8 C 70 % 1004,8 hPa 0,0 l/m 8,4 km/h (2 Bft) S 1,00 h 0,330 mm 621 W/m 20,7 C 26,8 C 13,7 km/h (3 Bft)
30/07/2007 11:00 27,6 C 67 % 1005,0 hPa 0,0 l/m 10,8 km/h (2 Bft) E 1,00 h 0,432 mm 710 W/m 20,9 C 27,6 C 16,3 km/h (3 Bft)
30/07/2007 12:00 27,7 C 67 % 1005,1 hPa 0,0 l/m 11,8 km/h (2 Bft) E 0,97 h 0,508 mm 813 W/m 21,0 C 27,7 C 17,5 km/h (3 Bft)
30/07/2007 13:00 28,1 C 65 % 1005,1 hPa 0,0 l/m 10,0 km/h (2 Bft) E 1,00 h 0,584 mm 828 W/m 20,8 C 28,1 C 15,8 km/h (3 Bft)
30/07/2007 14:00 28,3 C 65 % 1005,0 hPa 0,0 l/m 11,1 km/h (2 Bft) E 1,00 h 0,610 mm 810 W/m 21,0 C 28,3 C 17,2 km/h (3 Bft)
30/07/2007 15:00 28,2 C 63 % 1004,8 hPa 0,0 l/m 10,7 km/h (2 Bft) E 1,00 h 0,610 mm 734 W/m 20,5 C 28,2 C 15,9 km/h (3 Bft)
30/07/2007 16:00 28,1 C 63 % 1004,7 hPa 0,0 l/m 10,8 km/h (2 Bft) E 1,00 h 0,559 mm 618 W/m 20,3 C 28,1 C 16,3 km/h (3 Bft)
30/07/2007 17:00 27,6 C 66 % 1004,6 hPa 0,0 l/m 7,5 km/h (2 Bft) E 1,00 h 0,483 mm 470 W/m 20,5 C 27,6 C 12,2 km/h (2 Bft)
30/07/2007 18:00 26,8 C 68 % 1004,6 hPa 0,0 l/m 4,2 km/h (1 Bft) E-SE 1,00 h 0,356 mm 310 W/m 20,3 C 26,8 C 7,7 km/h (2 Bft)
30/07/2007 19:00 25,8 C 73 % 1004,6 hPa 0,0 l/m 2,2 km/h (1 Bft) E-SE 0,82 h 0,229 mm 147 W/m 20,7 C 25,8 C 4,3 km/h (1 Bft)
30/07/2007 20:00 24,0 C 80 % 1004,8 hPa 0,0 l/m 1,0 km/h (0 Bft) E-SE 0,03 h 0,102 mm 23 W/m 20,3 C 24,0 C 2,3 km/h (1 Bft)
30/07/2007 21:00 22,7 C 86 % 1005,0 hPa 0,0 l/m 0,5 km/h (0 Bft) SE 0,00 h 0,025 mm 0 W/m 20,2 C 22,7 C 1,0 km/h (0 Bft)
30/07/2007 22:00 22,1 C 89 % 1005,3 hPa 0,0 l/m 0,0 km/h (0 Bft) N 0,00 h 0,000 mm 0 W/m 20,2 C 22,1 C 0,0 km/h (0 Bft)
30/07/2007 23:00 21,7 C 91 % 1005,8 hPa 0,0 l/m 2,2 km/h (1 Bft) SE 0,00 h 0,025 mm 0 W/m 20,1 C 21,7 C 2,9 km/h (1 Bft)
31/07/2007 00:00 21,2 C 91 % 1006,1 hPa 0,0 l/m 3,2 km/h (1 Bft) SO 0,00 h 0,025 mm 0 W/m 19,7 C 21,2 C 4,6 km/h (1 Bft)
31/07/2007 01:00 20,8 C 92 % 1006,4 hPa 0,0 l/m 0,0 km/h (0 Bft) O-SO 0,00 h 0,025 mm 0 W/m 19,4 C 20,8 C 0,2 km/h (0 Bft)
31/07/2007 02:00 20,6 C 92 % 1006,5 hPa 0,0 l/m 6,3 km/h (2 Bft) O-NO 0,00 h 0,025 mm 0 W/m 19,3 C 20,6 C 8,5 km/h (2 Bft)
31/07/2007 03:00 20,1 C 92 % 1006,6 hPa 0,0 l/m 10,1 km/h (2 Bft) O 0,00 h 0,025 mm 0 W/m 18,8 C 20,1 C 13,8 km/h (3 Bft)
31/07/2007 04:00 20,4 C 87 % 1007,0 hPa 0,0 l/m 3,1 km/h (1 Bft) O 0,00 h 0,025 mm 0 W/m 18,2 C 20,4 C 4,7 km/h (1 Bft)
31/07/2007 05:00 19,5 C 81 % 1007,5 hPa 0,0 l/m 5,7 km/h (1 Bft) O-NO 0,00 h 0,025 mm 0 W/m 16,1 C 19,5 C 7,3 km/h (2 Bft)
31/07/2007 06:00 20,2 C 72 % 1008,0 hPa 0,0 l/m 7,3 km/h (2 Bft) O 0,02 h 0,025 mm 14 W/m 15,1 C 20,2 C 10,0 km/h (2 Bft)
31/07/2007 07:00 21,3 C 69 % 1008,6 hPa 0,0 l/m 6,1 km/h (2 Bft) O-SO 0,23 h 0,051 mm 74 W/m 15,4 C 21,3 C 8,8 km/h (2 Bft)
31/07/2007 08:00 23,4 C 62 % 1009,2 hPa 0,0 l/m 13,2 km/h (3 Bft) O-SO 1,00 h 0,076 mm 276 W/m 15,7 C 23,4 C 17,8 km/h (3 Bft)
31/07/2007 09:00 25,1 C 51 % 1009,8 hPa 0,0 l/m 14,8 km/h (3 Bft) SO 1,00 h 0,254 mm 448 W/m 14,3 C 25,1 C 20,0 km/h (4 Bft)
31/07/2007 10:00 26,3 C 52 % 1010,0 hPa 0,0 l/m 18,8 km/h (3 Bft) S-SO 1,00 h 0,406 mm 599 W/m 15,7 C 26,3 C 25,2 km/h (4 Bft)
31/07/2007 11:00 26,7 C 54 % 1010,3 hPa 0,0 l/m 21,5 km/h (4 Bft) S-SO 1,00 h 0,533 mm 719 W/m 16,6 C 26,7 C 29,4 km/h (5 Bft)
31/07/2007 12:00 26,6 C 55 % 1010,7 hPa 0,0 l/m 21,1 km/h (4 Bft) S 1,00 h 0,635 mm 801 W/m 16,7 C 26,6 C 28,5 km/h (4 Bft)
31/07/2007 13:00 26,0 C 61 % 1011,1 hPa 0,0 l/m 18,8 km/h (3 Bft) S 1,00 h 0,686 mm 849 W/m 17,8 C 26,0 C 26,0 km/h (4 Bft)
31/07/2007 14:00 26,0 C 59 % 1011,2 hPa 0,0 l/m 17,3 km/h (3 Bft) S 1,00 h 0,660 mm 808 W/m 17,3 C 26,0 C 23,7 km/h (4 Bft)
31/07/2007 15:00 25,9 C 56 % 1011,1 hPa 0,0 l/m 18,3 km/h (3 Bft) S 1,00 h 0,635 mm 730 W/m 16,4 C 25,9 C 24,6 km/h (4 Bft)
31/07/2007 16:00 26,2 C 52 % 1010,9 hPa 0,0 l/m 19,4 km/h (3 Bft) S 1,00 h 0,610 mm 627 W/m 15,5 C 26,2 C 26,2 km/h (4 Bft)
31/07/2007 17:00 25,6 C 57 % 1010,9 hPa 0,0 l/m 17,0 km/h (3 Bft) S-SE 1,00 h 0,559 mm 478 W/m 16,5 C 25,6 C 23,2 km/h (4 Bft)
31/07/2007 18:00 24,8 C 60 % 1010,8 hPa 0,0 l/m 18,1 km/h (3 Bft) S 1,00 h 0,432 mm 311 W/m 16,6 C 24,8 C 23,7 km/h (4 Bft)
31/07/2007 19:00 24,3 C 60 % 1010,9 hPa 0,0 l/m 12,3 km/h (3 Bft) S-SO 0,80 h 0,330 mm 149 W/m 16,1 C 24,3 C 17,3 km/h (3 Bft)
31/07/2007 20:00 22,6 C 64 % 1011,1 hPa 0,0 l/m 8,1 km/h (2 Bft) O-SO 0,00 h 0,178 mm 22 W/m 15,5 C 22,6 C 10,9 km/h (2 Bft)
31/07/2007 21:00 21,4 C 65 % 1011,4 hPa 0,0 l/m 5,1 km/h (1 Bft) SO 0,00 h 0,076 mm 0 W/m 14,6 C 21,4 C 7,1 km/h (2 Bft)
31/07/2007 22:00 20,5 C 67 % 1012,0 hPa 0,0 l/m 2,8 km/h (1 Bft) O-NO 0,00 h 0,025 mm 0 W/m 14,1 C 20,5 C 4,4 km/h (1 Bft)
31/07/2007 23:00 20,0 C 69 % 1012,3 hPa 0,0 l/m 2,2 km/h (1 Bft) NO 0,00 h 0,051 mm 0 W/m 14,1 C 20,0 C 4,3 km/h (1 Bft)
01/08/2007 00:00 19,4 C 72 % 1012,8 hPa 0,0 l/m 5,7 km/h (1 Bft) O-NO 0,00 h 0,000 mm 0 W/m 14,2 C 19,4 C 7,6 km/h (2 Bft)
01/08/2007 01:00 19,7 C 70 % 1013,0 hPa 0,0 l/m 4,9 km/h (1 Bft) NO 0,00 h 0,051 mm 0 W/m 14,1 C 19,7 C 6,8 km/h (2 Bft)
01/08/2007 02:00 19,3 C 71 % 1013,1 hPa 0,0 l/m 7,4 km/h (2 Bft) NO 0,00 h 0,051 mm 0 W/m 14,0 C 19,3 C 10,2 km/h (2 Bft)
01/08/2007 03:00 19,6 C 71 % 1013,1 hPa 0,0 l/m 6,1 km/h (2 Bft) NO 0,00 h 0,051 mm 0 W/m 14,2 C 19,6 C 8,8 km/h (2 Bft)
01/08/2007 04:00 19,7 C 71 % 1013,0 hPa 0,0 l/m 4,9 km/h (1 Bft) NO 0,00 h 0,051 mm 0 W/m 14,3 C 19,7 C 7,2 km/h (2 Bft)
01/08/2007 05:00 19,8 C 71 % 1013,1 hPa 0,0 l/m 4,5 km/h (1 Bft) N-NO 0,00 h 0,051 mm 0 W/m 14,3 C 19,8 C 6,9 km/h (2 Bft)
01/08/2007 06:00 20,1 C 68 % 1013,4 hPa 0,0 l/m 2,0 km/h (1 Bft) N-NO 0,00 h 0,025 mm 12 W/m 14,0 C 20,1 C 3,7 km/h (1 Bft)
01/08/2007 07:00 20,8 C 67 % 1013,8 hPa 0,0 l/m 0,8 km/h (0 Bft) N 0,23 h 0,025 mm 70 W/m 14,3 C 20,8 C 2,2 km/h (1 Bft)
01/08/2007 08:00 24,1 C 57 % 1014,4 hPa 0,0 l/m 3,8 km/h (1 Bft) NE 1,00 h 0,051 mm 272 W/m 15,1 C 24,1 C 6,5 km/h (2 Bft)
01/08/2007 09:00 25,5 C 50 % 1014,9 hPa 0,0 l/m 6,0 km/h (2 Bft) E 1,00 h 0,203 mm 445 W/m 14,2 C 25,5 C 10,5 km/h (2 Bft)
01/08/2007 10:00 26,6 C 44 % 1015,1 hPa 0,0 l/m 7,2 km/h (2 Bft) E 1,00 h 0,330 mm 601 W/m 13,2 C 26,6 C 12,3 km/h (3 Bft)
01/08/2007 11:00 26,6 C 44 % 1015,4 hPa 0,0 l/m 10,5 km/h (2 Bft) E 1,00 h 0,457 mm 728 W/m 13,2 C 26,6 C 16,2 km/h (3 Bft)
01/08/2007 12:00 26,9 C 44 % 1015,5 hPa 0,0 l/m 12,7 km/h (3 Bft) E 1,00 h 0,559 mm 807 W/m 13,6 C 26,9 C 18,6 km/h (3 Bft)
01/08/2007 13:00 27,2 C 41 % 1015,4 hPa 0,0 l/m 11,7 km/h (2 Bft) E 1,00 h 0,635 mm 836 W/m 12,9 C 27,2 C 18,3 km/h (3 Bft)
01/08/2007 14:00 27,1 C 42 % 1015,3 hPa 0,0 l/m 11,3 km/h (2 Bft) E 1,00 h 0,660 mm 805 W/m 13,0 C 27,1 C 17,4 km/h (3 Bft)
01/08/2007 15:00 27,5 C 37 % 1015,1 hPa 0,0 l/m 11,3 km/h (2 Bft) E 1,00 h 0,635 mm 730 W/m 11,5 C 27,5 C 17,1 km/h (3 Bft)
01/08/2007 16:00 27,4 C 39 % 1014,7 hPa 0,0 l/m 10,0 km/h (2 Bft) E 1,00 h 0,584 mm 613 W/m 12,0 C 27,4 C 14,9 km/h (3 Bft)
01/08/2007 17:00 26,8 C 40 % 1014,5 hPa 0,0 l/m 7,6 km/h (2 Bft) E 1,00 h 0,508 mm 463 W/m 11,9 C 26,8 C 12,1 km/h (2 Bft)
01/08/2007 18:00 26,2 C 40 % 1014,1 hPa 0,0 l/m 5,1 km/h (1 Bft) E 1,00 h 0,381 mm 296 W/m 11,6 C 26,2 C 8,1 km/h (2 Bft)
01/08/2007 19:00 25,5 C 45 % 1013,8 hPa 0,0 l/m 1,7 km/h (1 Bft) E-SE 0,63 h 0,254 mm 136 W/m 12,8 C 25,5 C 3,6 km/h (1 Bft)
01/08/2007 20:00 23,2 C 54 % 1013,7 hPa 0,0 l/m 0,4 km/h (0 Bft) E-SE 0,02 h 0,102 mm 27 W/m 13,4 C 23,2 C 1,1 km/h (1 Bft)
01/08/2007 21:00 21,2 C 62 % 1014,1 hPa 0,0 l/m 0,0 km/h (0 Bft) N 0,00 h 0,025 mm 0 W/m 13,7 C 21,2 C 0,4 km/h (0 Bft)
01/08/2007 22:00 20,7 C 62 % 1014,5 hPa 0,0 l/m 1,2 km/h (1 Bft) E-SE 0,00 h 0,000 mm 0 W/m 13,2 C 20,7 C 2,3 km/h (1 Bft)
01/08/2007 23:00 20,5 C 60 % 1014,5 hPa 0,0 l/m 4,1 km/h (1 Bft) NO 0,00 h 0,051 mm 0 W/m 12,4 C 20,5 C 6,6 km/h (2 Bft)
02/08/2007 00:00 20,5 C 57 % 1014,5 hPa 0,0 l/m 7,0 km/h (2 Bft) O-NO 0,00 h 0,051 mm 0 W/m 11,8 C 20,5 C 10,1 km/h (2 Bft)
02/08/2007 01:00 20,5 C 57 % 1014,5 hPa 0,0 l/m 7,8 km/h (2 Bft) O-NO 0,00 h 0,076 mm 0 W/m 11,8 C 20,5 C 11,7 km/h (2 Bft)
02/08/2007 02:00 20,5 C 57 % 1013,9 hPa 0,0 l/m 1,4 km/h (1 Bft) O-NO 0,00 h 0,076 mm 0 W/m 11,6 C 20,5 C 2,9 km/h (1 Bft)
02/08/2007 03:00 20,5 C 56 % 1013,4 hPa 0,0 l/m 3,5 km/h (1 Bft) O-NO 0,00 h 0,051 mm 0 W/m 11,5 C 20,5 C 5,0 km/h (1 Bft)
02/08/2007 04:00 20,4 C 57 % 1013,5 hPa 0,0 l/m 2,3 km/h (1 Bft) O 0,00 h 0,051 mm 0 W/m 11,6 C 20,4 C 3,7 km/h (1 Bft)
02/08/2007 05:00 19,7 C 60 % 1013,4 hPa 0,0 l/m 2,8 km/h (1 Bft) N-NO 0,00 h 0,051 mm 0 W/m 11,6 C 19,7 C 4,1 km/h (1 Bft)
02/08/2007 06:00 19,8 C 60 % 1013,6 hPa 0,0 l/m 4,6 km/h (1 Bft) O 0,13 h 0,025 mm 19 W/m 11,8 C 19,8 C 6,5 km/h (2 Bft)
02/08/2007 07:00 20,5 C 59 % 1013,6 hPa 0,0 l/m 0,6 km/h (0 Bft) O 0,23 h 0,051 mm 72 W/m 12,2 C 20,5 C 1,8 km/h (1 Bft)
02/08/2007 08:00 23,1 C 52 % 1013,6 hPa 0,0 l/m 1,4 km/h (1 Bft) E 1,00 h 0,051 mm 252 W/m 12,7 C 23,1 C 3,0 km/h (1 Bft)
02/08/2007 09:00 25,6 C 43 % 1013,5 hPa 0,0 l/m 4,5 km/h (1 Bft) S-SE 0,88 h 0,178 mm 405 W/m 12,0 C 25,6 C 7,5 km/h (2 Bft)
02/08/2007 10:00 26,9 C 37 % 1014,0 hPa 0,0 l/m 7,9 km/h (2 Bft) S 0,70 h 0,305 mm 499 W/m 10,8 C 26,9 C 12,2 km/h (2 Bft)
02/08/2007 11:00 28,3 C 34 % 1013,9 hPa 0,0 l/m 12,5 km/h (3 Bft) S 1,00 h 0,406 mm 682 W/m 11,1 C 28,3 C 18,4 km/h (3 Bft)
02/08/2007 12:00 29,4 C 34 % 1013,8 hPa 0,0 l/m 13,7 km/h (3 Bft) S 1,00 h 0,584 mm 788 W/m 12,0 C 29,4 C 19,7 km/h (3 Bft)
02/08/2007 13:00 29,2 C 41 % 1013,2 hPa 0,0 l/m 12,8 km/h (3 Bft) E 0,65 h 0,686 mm 610 W/m 14,3 C 29,2 C 19,3 km/h (3 Bft)
02/08/2007 14:00 27,4 C 51 % 1012,6 hPa 0,0 l/m 9,1 km/h (2 Bft) E 0,43 h 0,533 mm 504 W/m 16,4 C 27,4 C 13,7 km/h (3 Bft)
02/08/2007 15:00 28,9 C 39 % 1013,5 hPa 0,0 l/m 12,2 km/h (2 Bft) S 1,00 h 0,432 mm 743 W/m 13,3 C 28,9 C 17,7 km/h (3 Bft)
02/08/2007 16:00 27,5 C 52 % 1013,0 hPa 0,0 l/m 11,8 km/h (2 Bft) E 0,40 h 0,610 mm 425 W/m 16,6 C 27,5 C 18,0 km/h (3 Bft)
02/08/2007 17:00 25,8 C 61 % 1013,6 hPa 0,0 l/m 6,9 km/h (2 Bft) E 0,75 h 0,381 mm 419 W/m 17,7 C 25,8 C 10,2 km/h (2 Bft)
02/08/2007 18:00 25,3 C 62 % 1012,7 hPa 0,0 l/m 4,5 km/h (1 Bft) S-SE 0,85 h 0,330 mm 274 W/m 17,5 C 25,3 C 7,3 km/h (2 Bft)
02/08/2007 19:00 24,7 C 68 % 1012,4 hPa 0,0 l/m 2,6 km/h (1 Bft) E-SE 0,75 h 0,203 mm 133 W/m 18,4 C 24,7 C 5,0 km/h (1 Bft)
02/08/2007 20:00 23,1 C 76 % 1012,0 hPa 0,0 l/m 0,9 km/h (0 Bft) SE 0,00 h 0,102 mm 25 W/m 18,7 C 23,1 C 2,1 km/h (1 Bft)
02/08/2007 21:00 21,8 C 84 % 1012,2 hPa 0,0 l/m 0,8 km/h (0 Bft) SE 0,00 h 0,025 mm 0 W/m 18,9 C 21,8 C 2,2 km/h (1 Bft)
02/08/2007 22:00 21,3 C 89 % 1012,5 hPa 0,0 l/m 1,7 km/h (1 Bft) N-NE 0,00 h 0,000 mm 0 W/m 19,4 C 21,3 C 3,4 km/h (1 Bft)
02/08/2007 23:00 21,0 C 89 % 1012,4 hPa 0,0 l/m 0,7 km/h (0 Bft) N-NE 0,00 h 0,025 mm 0 W/m 19,2 C 21,0 C 2,1 km/h (1 Bft)
03/08/2007 00:00 20,4 C 90 % 1012,0 hPa 0,0 l/m 0,3 km/h (0 Bft) N 0,00 h 0,025 mm 0 W/m 18,7 C 20,4 C 1,4 km/h (1 Bft)
03/08/2007 01:00 20,3 C 90 % 1012,0 hPa 0,0 l/m 0,1 km/h (0 Bft) N 0,00 h 0,025 mm 0 W/m 18,6 C 20,3 C 0,7 km/h (0 Bft)
03/08/2007 02:00 20,2 C 90 % 1011,7 hPa 0,0 l/m 0,2 km/h (0 Bft) N 0,00 h 0,025 mm 0 W/m 18,5 C 20,2 C 0,7 km/h (0 Bft)
03/08/2007 03:00 20,0 C 90 % 1011,8 hPa 0,0 l/m 0,3 km/h (0 Bft) N 0,00 h 0,025 mm 0 W/m 18,3 C 20,0 C 1,2 km/h (1 Bft)
03/08/2007 04:00 20,2 C 90 % 1011,8 hPa 0,0 l/m 0,6 km/h (0 Bft) N-NO 0,00 h 0,025 mm 0 W/m 18,5 C 20,2 C 1,4 km/h (1 Bft)
03/08/2007 05:00 19,9 C 91 % 1011,4 hPa 0,0 l/m 2,0 km/h (1 Bft) N-NO 0,00 h 0,025 mm 0 W/m 18,3 C 19,9 C 3,6 km/h (1 Bft)
03/08/2007 06:00 19,9 C 91 % 1011,7 hPa 0,0 l/m 1,9 km/h (1 Bft) O-NO 0,00 h 0,000 mm 15 W/m 18,4 C 19,9 C 3,0 km/h (1 Bft)
03/08/2007 07:00 21,0 C 89 % 1011,9 hPa 0,0 l/m 0,1 km/h (0 Bft) O-NO 0,27 h 0,000 mm 90 W/m 19,2 C 21,0 C 0,4 km/h (0 Bft)
03/08/2007 08:00 22,7 C 82 % 1012,1 hPa 0,0 l/m 2,3 km/h (1 Bft) NE 0,55 h 0,051 mm 246 W/m 19,4 C 22,7 C 4,1 km/h (1 Bft)
03/08/2007 09:00 24,2 C 75 % 1012,3 hPa 0,0 l/m 7,7 km/h (2 Bft) E 0,70 h 0,152 mm 375 W/m 19,6 C 24,2 C 11,6 km/h (2 Bft)
03/08/2007 10:00 24,6 C 72 % 1012,6 hPa 0,0 l/m 9,6 km/h (2 Bft) E 0,22 h 0,254 mm 332 W/m 19,3 C 24,6 C 16,1 km/h (3 Bft)
03/08/2007 11:00 25,6 C 65 % 1013,2 hPa 0,0 l/m 12,4 km/h (3 Bft) E 0,75 h 0,254 mm 649 W/m 18,4 C 25,6 C 18,5 km/h (3 Bft)
03/08/2007 12:00 26,6 C 60 % 1013,6 hPa 0,0 l/m 10,8 km/h (2 Bft) E 1,00 h 0,483 mm 779 W/m 18,3 C 26,6 C 17,0 km/h (3 Bft)
03/08/2007 13:00 26,8 C 59 % 1014,0 hPa 0,0 l/m 9,9 km/h (2 Bft) E 1,00 h 0,559 mm 809 W/m 18,2 C 26,8 C 15,9 km/h (3 Bft)
03/08/2007 14:00 28,0 C 52 % 1014,1 hPa 0,0 l/m 8,4 km/h (2 Bft) E 1,00 h 0,584 mm 812 W/m 17,2 C 28,0 C 13,9 km/h (3 Bft)
03/08/2007 15:00 27,8 C 50 % 1014,5 hPa 0,0 l/m 7,9 km/h (2 Bft) E 1,00 h 0,610 mm 759 W/m 16,5 C 27,8 C 12,8 km/h (3 Bft)
03/08/2007 16:00 28,5 C 49 % 1014,5 hPa 0,0 l/m 9,3 km/h (2 Bft) E 0,93 h 0,559 mm 603 W/m 16,6 C 28,5 C 14,3 km/h (3 Bft)
03/08/2007 17:00 27,9 C 51 % 1014,5 hPa 0,0 l/m 6,9 km/h (2 Bft) E 0,57 h 0,483 mm 389 W/m 16,9 C 27,9 C 10,2 km/h (2 Bft)
03/08/2007 18:00 27,3 C 54 % 1014,5 hPa 0,0 l/m 2,5 km/h (1 Bft) E-SE 1,00 h 0,330 mm 308 W/m 17,2 C 27,3 C 4,8 km/h (1 Bft)
03/08/2007 19:00 26,7 C 56 % 1014,5 hPa 0,0 l/m 0,9 km/h (0 Bft) E-SE 0,97 h 0,229 mm 147 W/m 17,1 C 26,7 C 2,4 km/h (1 Bft)
03/08/2007 20:00 25,0 C 61 % 1015,0 hPa 0,0 l/m 0,1 km/h (0 Bft) E-SE 0,03 h 0,102 mm 24 W/m 17,0 C 25,0 C 0,5 km/h (0 Bft)
03/08/2007 21:00 23,5 C 66 % 1015,3 hPa 0,0 l/m 0,3 km/h (0 Bft) E-SE 0,00 h 0,025 mm 0 W/m 16,7 C 23,5 C 0,8 km/h (0 Bft)
03/08/2007 22:00 23,2 C 57 % 1015,8 hPa 0,0 l/m 4,7 km/h (1 Bft) NO 0,00 h 0,000 mm 0 W/m 14,1 C 23,2 C 7,7 km/h (2 Bft)
03/08/2007 23:00 23,9 C 50 % 1016,1 hPa 0,0 l/m 3,9 km/h (1 Bft) O-NO 0,00 h 0,076 mm 0 W/m 12,7 C 23,9 C 6,5 km/h (2 Bft)
04/08/2007 00:00 23,3 C 52 % 1016,5 hPa 0,0 l/m 1,9 km/h (1 Bft) NO 0,00 h 0,076 mm 0 W/m 12,8 C 23,3 C 3,5 km/h (1 Bft)
04/08/2007 01:00 22,6 C 54 % 1016,8 hPa 0,0 l/m 1,4 km/h (1 Bft) NE 0,00 h 0,051 mm 0 W/m 12,7 C 22,6 C 2,8 km/h (1 Bft)
04/08/2007 02:00 21,7 C 62 % 1017,1 hPa 0,0 l/m 0,4 km/h (0 Bft) N-NE 0,00 h 0,051 mm 0 W/m 14,1 C 21,7 C 1,9 km/h (1 Bft)
04/08/2007 03:00 21,4 C 66 % 1017,1 hPa 0,0 l/m 0,3 km/h (0 Bft) N 0,00 h 0,051 mm 0 W/m 14,8 C 21,4 C 0,8 km/h (0 Bft)
04/08/2007 04:00 20,8 C 73 % 1017,3 hPa 0,0 l/m 0,4 km/h (0 Bft) N 0,00 h 0,025 mm 0 W/m 15,8 C 20,8 C 0,9 km/h (0 Bft)
04/08/2007 05:00 20,4 C 70 % 1017,4 hPa 0,0 l/m 2,0 km/h (1 Bft) NO 0,00 h 0,025 mm 0 W/m 14,7 C 20,4 C 3,1 km/h (1 Bft)
04/08/2007 06:00 20,4 C 70 % 1017,7 hPa 0,0 l/m 3,4 km/h (1 Bft) O-NO 0,05 h 0,025 mm 16 W/m 14,7 C 20,4 C 4,8 km/h (1 Bft)
04/08/2007 07:00 21,0 C 63 % 1018,2 hPa 0,0 l/m 4,4 km/h (1 Bft) N-NO 0,20 h 0,025 mm 69 W/m 13,7 C 21,0 C 6,9 km/h (2 Bft)
04/08/2007 08:00 25,0 C 51 % 1018,5 hPa 0,0 l/m 2,2 km/h (1 Bft) E 1,00 h 0,076 mm 258 W/m 13,9 C 25,0 C 4,0 km/h (1 Bft)
04/08/2007 09:00 27,0 C 46 % 1018,8 hPa 0,0 l/m 6,4 km/h (2 Bft) E 1,00 h 0,178 mm 415 W/m 14,5 C 27,0 C 9,6 km/h (2 Bft)
04/08/2007 10:00 27,9 C 46 % 1019,1 hPa 0,0 l/m 8,7 km/h (2 Bft) E 1,00 h 0,330 mm 579 W/m 15,2 C 27,9 C 14,5 km/h (3 Bft)
04/08/2007 11:00 27,9 C 49 % 1019,2 hPa 0,0 l/m 10,4 km/h (2 Bft) E 1,00 h 0,457 mm 703 W/m 16,3 C 27,9 C 15,5 km/h (3 Bft)
04/08/2007 12:00 28,3 C 55 % 1019,0 hPa 0,0 l/m 12,4 km/h (3 Bft) E 1,00 h 0,559 mm 784 W/m 18,4 C 28,3 C 18,2 km/h (3 Bft)
04/08/2007 13:00 28,3 C 56 % 1018,6 hPa 0,0 l/m 11,0 km/h (2 Bft) E 1,00 h 0,610 mm 809 W/m 18,7 C 28,3 C 17,2 km/h (3 Bft)
04/08/2007 14:00 28,6 C 54 % 1018,3 hPa 0,0 l/m 11,5 km/h (2 Bft) E 1,00 h 0,610 mm 785 W/m 18,2 C 28,6 C 17,5 km/h (3 Bft)
04/08/2007 15:00 28,6 C 54 % 1017,9 hPa 0,0 l/m 10,5 km/h (2 Bft) E 1,00 h 0,610 mm 715 W/m 18,4 C 28,6 C 15,5 km/h (3 Bft)
04/08/2007 16:00 28,6 C 52 % 1017,4 hPa 0,0 l/m 8,7 km/h (2 Bft) E 1,00 h 0,559 mm 601 W/m 17,8 C 28,6 C 13,6 km/h (3 Bft)
04/08/2007 17:00 28,3 C 50 % 1017,0 hPa 0,0 l/m 7,3 km/h (2 Bft) E 1,00 h 0,483 mm 458 W/m 16,9 C 28,3 C 11,7 km/h (2 Bft)
04/08/2007 18:00 27,4 C 49 % 1016,6 hPa 0,0 l/m 6,0 km/h (2 Bft) S-SE 1,00 h 0,381 mm 292 W/m 15,8 C 27,4 C 9,7 km/h (2 Bft)
04/08/2007 19:00 26,9 C 47 % 1016,4 hPa 0,0 l/m 2,1 km/h (1 Bft) SE 0,85 h 0,254 mm 137 W/m 14,5 C 26,9 C 4,1 km/h (1 Bft)
04/08/2007 20:00 25,4 C 54 % 1016,4 hPa 0,0 l/m 2,5 km/h (1 Bft) SO 0,03 h 0,127 mm 21 W/m 15,3 C 25,4 C 4,3 km/h (1 Bft)
04/08/2007 21:00 24,1 C 55 % 1016,2 hPa 0,0 l/m 7,3 km/h (2 Bft) O-NO 0,00 h 0,051 mm 0 W/m 14,4 C 24,1 C 9,5 km/h (2 Bft)
04/08/2007 22:00 23,3 C 57 % 1016,3 hPa 0,0 l/m 4,1 km/h (1 Bft) O-NO 0,00 h 0,076 mm 0 W/m 14,2 C 23,3 C 6,2 km/h (2 Bft)
04/08/2007 23:00 22,7 C 58 % 1016,1 hPa 0,0 l/m 8,0 km/h (2 Bft) O-NO 0,00 h 0,076 mm 0 W/m 14,1 C 22,7 C 10,6 km/h (2 Bft)
05/08/2007 00:00 22,4 C 59 % 1016,1 hPa 0,0 l/m 6,9 km/h (2 Bft) NO 0,00 h 0,076 mm 0 W/m 14,1 C 22,4 C 9,8 km/h (2 Bft)
05/08/2007 01:00 22,0 C 61 % 1016,1 hPa 0,0 l/m 2,8 km/h (1 Bft) NO 0,00 h 0,076 mm 0 W/m 14,0 C 22,0 C 5,0 km/h (1 Bft)
05/08/2007 02:00 21,6 C 63 % 1015,7 hPa 0,0 l/m 2,7 km/h (1 Bft) O-NO 0,00 h 0,051 mm 0 W/m 14,3 C 21,6 C 5,0 km/h (1 Bft)
05/08/2007 03:00 21,6 C 63 % 1015,5 hPa 0,0 l/m 2,8 km/h (1 Bft) NO 0,00 h 0,051 mm 0 W/m 14,2 C 21,6 C 5,0 km/h (1 Bft)
05/08/2007 04:00 21,2 C 64 % 1015,2 hPa 0,0 l/m 3,4 km/h (1 Bft) NO 0,00 h 0,051 mm 0 W/m 14,1 C 21,2 C 5,3 km/h (1 Bft)
05/08/2007 05:00 21,4 C 64 % 1015,0 hPa 0,0 l/m 3,2 km/h (1 Bft) O-NO 0,00 h 0,051 mm 0 W/m 14,2 C 21,4 C 4,9 km/h (1 Bft)
05/08/2007 06:00 20,6 C 66 % 1015,2 hPa 0,0 l/m 0,9 km/h (0 Bft) NO 0,03 h 0,025 mm 12 W/m 14,1 C 20,6 C 1,5 km/h (1 Bft)
05/08/2007 07:00 21,3 C 65 % 1015,7 hPa 0,0 l/m 1,6 km/h (1 Bft) E 0,20 h 0,025 mm 61 W/m 14,4 C 21,3 C 2,5 km/h (1 Bft)
05/08/2007 08:00 24,0 C 58 % 1016,0 hPa 0,0 l/m 2,1 km/h (1 Bft) E 1,00 h 0,051 mm 268 W/m 15,1 C 24,0 C 3,6 km/h (1 Bft)
05/08/2007 09:00 26,3 C 55 % 1015,8 hPa 0,0 l/m 7,7 km/h (2 Bft) E 1,00 h 0,178 mm 435 W/m 16,5 C 26,3 C 11,8 km/h (2 Bft)
05/08/2007 10:00 26,6 C 66 % 1015,6 hPa 0,0 l/m 8,1 km/h (2 Bft) E 1,00 h 0,330 mm 583 W/m 19,7 C 26,6 C 13,8 km/h (3 Bft)
05/08/2007 11:00 27,0 C 62 % 1015,6 hPa 0,0 l/m 8,1 km/h (2 Bft) E 1,00 h 0,432 mm 709 W/m 19,1 C 27,0 C 13,4 km/h (3 Bft)
05/08/2007 12:00 27,2 C 61 % 1015,4 hPa 0,0 l/m 9,7 km/h (2 Bft) E 1,00 h 0,508 mm 789 W/m 18,9 C 27,2 C 15,1 km/h (3 Bft)
05/08/2007 13:00 27,5 C 56 % 1014,9 hPa 0,0 l/m 11,7 km/h (2 Bft) E 1,00 h 0,584 mm 809 W/m 17,9 C 27,5 C 17,4 km/h (3 Bft)
05/08/2007 14:00 28,1 C 52 % 1014,5 hPa 0,0 l/m 12,2 km/h (3 Bft) E 1,00 h 0,610 mm 791 W/m 17,4 C 28,1 C 18,0 km/h (3 Bft)
05/08/2007 15:00 28,1 C 50 % 1014,0 hPa 0,0 l/m 11,1 km/h (2 Bft) E 1,00 h 0,610 mm 719 W/m 16,7 C 28,1 C 17,2 km/h (3 Bft)
05/08/2007 16:00 27,7 C 52 % 1013,7 hPa 0,0 l/m 9,1 km/h (2 Bft) E 1,00 h 0,559 mm 605 W/m 16,9 C 27,7 C 14,8 km/h (3 Bft)
05/08/2007 17:00 27,3 C 54 % 1013,3 hPa 0,0 l/m 7,4 km/h (2 Bft) E 1,00 h 0,457 mm 461 W/m 17,3 C 27,3 C 12,0 km/h (2 Bft)
05/08/2007 18:00 26,6 C 55 % 1012,9 hPa 0,0 l/m 4,3 km/h (1 Bft) E 1,00 h 0,356 mm 297 W/m 16,7 C 26,6 C 7,5 km/h (2 Bft)
05/08/2007 19:00 25,6 C 57 % 1012,6 hPa 0,0 l/m 3,0 km/h (1 Bft) E-SE 0,87 h 0,229 mm 140 W/m 16,4 C 25,6 C 5,1 km/h (1 Bft)
05/08/2007 20:00 23,8 C 65 % 1012,3 hPa 0,0 l/m 0,0 km/h (0 Bft) E-SE 0,03 h 0,127 mm 22 W/m 16,7 C 23,8 C 0,4 km/h (0 Bft)
05/08/2007 21:00 22,6 C 73 % 1012,3 hPa 0,0 l/m 0,5 km/h (0 Bft) E-SE 0,00 h 0,025 mm 0 W/m 17,6 C 22,6 C 1,5 km/h (1 Bft)
05/08/2007 22:00 21,5 C 76 % 1012,5 hPa 0,0 l/m 0,1 km/h (0 Bft) E-SE 0,00 h 0,000 mm 0 W/m 17,0 C 21,5 C 0,3 km/h (0 Bft)
05/08/2007 23:00 21,0 C 78 % 1012,4 hPa 0,0 l/m 1,4 km/h (1 Bft) E-SE 0,00 h 0,025 mm 0 W/m 17,0 C 21,0 C 2,2 km/h (1 Bft)
Min-Date _ 31/07/07 02/08/07 30/07/07 - 30/07/07 - - - - 02/08/07 31/07/07 30/07/07
_ Min-Heure 05:23 13:02 03:45 - 00:10 - - - - 10:21 05:23 00:11
Minimum _ 19,1 C 31 % 1004,2 hPa - 0,0 km/h (0 Bft) - - - - 10,0 C 19,1 C 0,0 km/h (0 Bft)
Max-Date _ 02/08/07 31/07/07 04/08/07 30/07/07 31/07/07 - 03/08/07 31/07/07 02/08/07 30/07/07 02/08/07 31/07/07
_ Max-Heure 13:32 02:33 10:45 00:00 11:35 - 12:14 13:00 13:31 13:38 13:32 11:28
Maximum _ 30,1 C 93 % 1019,2 hPa 0,0 l/m 30,6 km/h
S-SO (5 Bft)
- 0,08 h 0,686 mm 925 W/m 21,9 C 30,1 C 38,6 km/h
S-SO (5 Bft)
Moyenne _ 24,0 C 63 % 1012,5 hPa #0,0 l/m 6,0 km/h (2 Bft) E #79:57 h #39,012 mm 440 W/m 16,0 C 24,0 C 9,2 km/h (2 Bft)
Roquefort les pins